Time;durP1;ratioP1;P1;durP2;ratioP2;P2;SDS_P1;SDS_P2;PMS_P1;PMS_P2;Temp;Humidity;BMP_temperature;BMP_pressure;BME280_temperature;BME280_humidity;BME280_pressure;Samples;Min_cycle;Max_cycle;Signal;HPM_P1;HPM_P2
2024/03/08 00:00:20;;;;;;;27.80;12.35;;;;;;;0.34;53.42;102324.88;5026571;28;20573;-73
2024/03/08 00:02:46;;;;;;;25.30;11.40;;;;;;;0.15;53.84;102330.38;5021649;28;20075;-74
2024/03/08 00:05:12;;;;;;;25.50;11.05;;;;;;;0.26;53.44;102316.09;5027251;28;20036;-73
2024/03/08 00:07:39;;;;;;;27.55;11.40;;;;;;;0.22;53.20;102322.84;5027879;28;20817;-73
2024/03/08 00:10:12;;;;;;;27.02;12.27;;;;;;;0.24;53.35;102326.34;5028592;28;20036;-73
2024/03/08 00:12:42;;;;;;;26.08;12.00;;;;;;;0.19;53.40;102322.78;5029825;28;20494;-73
2024/03/08 00:15:14;;;;;;;23.73;11.55;;;;;;;0.17;53.39;102319.28;5031040;28;20152;-72
2024/03/08 00:17:43;;;;;;;22.05;11.48;;;;;;;0.07;53.42;102317.28;5036388;28;20044;-73
2024/03/08 00:20:09;;;;;;;26.65;11.68;;;;;;;-0.16;54.16;102320.13;5028728;28;20639;-73
2024/03/08 00:22:36;;;;;;;24.95;12.82;;;;;;;0.03;53.62;102318.03;5016323;28;20056;-73
2024/03/08 00:25:02;;;;;;;26.58;11.82;;;;;;;0.12;53.10;102318.28;5015720;28;20670;-73
2024/03/08 00:27:31;;;;;;;22.45;12.23;;;;;;;0.15;53.12;102315.81;5035983;28;20056;-73
2024/03/08 00:29:57;;;;;;;24.90;11.95;;;;;;;-0.10;53.42;102313.38;5021271;28;20028;-73
2024/03/08 00:32:27;;;;;;;26.70;12.20;;;;;;;0.01;53.14;102324.84;5026445;28;20076;-73
2024/03/08 00:34:54;;;;;;;25.77;10.73;;;;;;;0.05;52.85;102316.38;5023032;28;20164;-73
2024/03/08 00:37:21;;;;;;;23.63;11.98;;;;;;;-0.01;53.10;102317.09;5029770;28;20037;-73
2024/03/08 00:39:50;;;;;;;28.30;12.60;;;;;;;0.02;52.55;102313.75;5038640;28;20117;-73
2024/03/08 00:42:17;;;;;;;22.20;10.63;;;;;;;-0.02;53.12;102319.63;5028234;28;20052;-72
2024/03/08 00:44:43;;;;;;;31.50;11.90;;;;;;;-0.09;53.03;102317.72;5027416;28;20083;-73
2024/03/08 00:47:08;;;;;;;21.50;10.05;;;;;;;-0.17;52.92;102313.25;5024263;28;20048;-73
2024/03/08 00:49:34;;;;;;;19.98;9.52;;;;;;;0.02;52.45;102306.91;5031136;28;20077;-73
2024/03/08 00:51:59;;;;;;;23.45;10.43;;;;;;;-0.17;52.94;102308.09;5021433;28;20183;-73
2024/03/08 00:54:26;;;;;;;25.85;10.07;;;;;;;-0.28;53.18;102306.94;5032929;28;20654;-72
2024/03/08 00:56:51;;;;;;;22.15;10.63;;;;;;;-0.23;53.02;102304.50;5035984;28;20056;-72
2024/03/08 00:59:16;;;;;;;34.10;11.77;;;;;;;-0.17;53.09;102300.41;5029587;28;20094;-72
2024/03/08 01:01:43;;;;;;;22.67;10.23;;;;;;;-0.19;52.61;102304.63;5027855;28;20037;-73
2024/03/08 01:04:10;;;;;;;30.90;12.50;;;;;;;-0.37;53.23;102304.09;5021271;28;20036;-73
2024/03/08 01:06:38;;;;;;;23.85;11.40;;;;;;;-0.20;52.69;102297.72;5036166;28;20051;-71
2024/03/08 01:09:06;;;;;;;21.17;11.43;;;;;;;-0.24;52.59;102290.75;5021001;28;20985;-71
2024/03/08 01:11:33;;;;;;;22.67;11.00;;;;;;;-0.26;52.67;102287.31;5029484;28;20036;-70
2024/03/08 01:13:59;;;;;;;22.95;11.10;;;;;;;-0.20;52.50;102282.31;5016851;28;20037;-71
2024/03/08 01:16:24;;;;;;;20.50;10.77;;;;;;;-0.42;53.24;102282.53;5031131;28;20098;-71
2024/03/08 01:18:50;;;;;;;25.13;11.23;;;;;;;-0.33;52.92;102271.66;5017086;28;20123;-70
2024/03/08 01:21:15;;;;;;;21.90;10.90;;;;;;;-0.51;53.31;102264.31;5030307;28;20059;-70
2024/03/08 01:23:41;;;;;;;27.48;12.48;;;;;;;-0.20;52.42;102268.59;5024698;28;20043;-71
2024/03/08 01:26:06;;;;;;;25.15;11.57;;;;;;;-0.20;52.08;102266.88;5021185;28;20059;-71
2024/03/08 01:28:34;;;;;;;24.33;11.57;;;;;;;-0.36;52.64;102262.16;5027037;28;20119;-71
2024/03/08 01:30:59;;;;;;;21.42;11.05;;;;;;;-0.33;53.03;102257.09;5021432;28;20525;-72
2024/03/08 01:33:26;;;;;;;30.67;12.00;;;;;;;-0.40;53.09;102253.50;5026060;28;20703;-72
2024/03/08 01:35:55;;;;;;;23.45;10.55;;;;;;;-0.36;52.70;102254.47;5023116;28;20493;-73
2024/03/08 01:38:21;;;;;;;28.73;11.15;;;;;;;-0.38;52.70;102243.28;5029633;28;20041;-72
2024/03/08 01:40:47;;;;;;;24.58;9.90;;;;;;;-0.20;52.39;102240.31;5030990;28;20527;-73
2024/03/08 01:43:26;;;;;;;21.27;9.63;;;;;;;-0.30;52.53;102234.09;5008998;28;20048;-71
2024/03/08 01:45:52;;;;;;;19.73;10.18;;;;;;;-0.31;52.43;102232.31;5024424;28;20112;-73
2024/03/08 01:48:21;;;;;;;22.90;11.00;;;;;;;-0.19;51.97;102227.53;5026543;28;20071;-72
2024/03/08 01:50:47;;;;;;;25.90;11.05;;;;;;;-0.44;52.80;102230.25;5028484;28;20155;-71
2024/03/08 01:53:15;;;;;;;18.75;10.07;;;;;;;-0.38;52.57;102215.88;5023593;28;20246;-71
2024/03/08 01:55:42;;;;;;;28.48;12.07;;;;;;;-0.44;52.71;102225.09;5028213;28;20494;-72
2024/03/08 01:58:09;;;;;;;19.52;9.32;;;;;;;-0.29;52.07;102216.97;5024445;28;20035;-71
2024/03/08 02:00:40;;;;;;;23.73;11.52;;;;;;;-0.38;52.47;102217.56;5033653;28;20060;-71
2024/03/08 02:03:05;;;;;;;23.13;11.02;;;;;;;-0.44;52.69;102212.25;5021087;28;20037;-71
2024/03/08 02:05:31;;;;;;;30.55;11.13;;;;;;;-0.27;52.16;102211.03;5028237;28;20029;-72
2024/03/08 02:07:57;;;;;;;25.67;11.02;;;;;;;-0.41;52.18;102209.81;5020930;28;20039;-73
2024/03/08 02:10:22;;;;;;;18.85;10.25;;;;;;;-0.43;52.51;102211.47;5026333;28;20549;-72
2024/03/08 02:12:48;;;;;;;26.67;11.45;;;;;;;-0.54;52.70;102218.00;5028598;28;20044;-74
2024/03/08 02:15:14;;;;;;;24.95;11.52;;;;;;;-0.37;52.50;102209.94;5019967;28;20882;-74
2024/03/08 02:17:42;;;;;;;27.60;11.02;;;;;;;-0.56;52.56;102202.53;5029031;28;20051;-74
2024/03/08 02:20:09;;;;;;;26.65;12.52;;;;;;;-0.52;52.58;102199.22;5021895;28;20642;-74
2024/03/08 02:22:36;;;;;;;20.13;9.90;;;;;;;-0.38;51.93;102200.47;5029690;28;20440;-74
2024/03/08 02:25:03;;;;;;;23.40;10.93;;;;;;;-0.49;52.34;102198.44;5030808;28;20090;-74
2024/03/08 02:27:32;;;;;;;23.83;11.05;;;;;;;-0.53;52.29;102188.91;5033915;28;20379;-74
2024/03/08 02:29:58;;;;;;;22.90;10.32;;;;;;;-0.63;52.66;102188.66;5025633;28;20179;-74
2024/03/08 02:32:24;;;;;;;19.52;9.98;;;;;;;-0.63;52.87;102198.06;5035941;28;20072;-74
2024/03/08 02:34:50;;;;;;;25.73;10.95;;;;;;;-0.54;52.40;102197.44;5013539;28;20412;-73
2024/03/08 02:37:16;;;;;;;24.83;10.75;;;;;;;-0.73;52.86;102191.78;5017785;28;20942;-74
2024/03/08 02:39:41;;;;;;;31.77;10.93;;;;;;;-0.70;52.78;102189.31;5029778;28;20028;-74
2024/03/08 02:42:07;;;;;;;19.30;10.38;;;;;;;-0.68;52.76;102185.09;5014382;28;20032;-74
2024/03/08 02:44:36;;;;;;;24.88;10.93;;;;;;;-0.67;52.63;102185.97;5029403;28;20054;-73
2024/03/08 02:47:01;;;;;;;26.00;11.80;;;;;;;-0.61;52.50;102181.00;5018802;28;20049;-75
2024/03/08 02:49:27;;;;;;;21.52;10.77;;;;;;;-0.60;52.53;102181.03;5027407;28;20645;-74
2024/03/08 02:51:53;;;;;;;26.52;11.27;;;;;;;-0.59;52.22;102175.06;5022915;28;20040;-74
2024/03/08 02:54:19;;;;;;;28.55;10.68;;;;;;;-0.78;53.02;102173.69;5022225;28;20849;-74
2024/03/08 02:56:46;;;;;;;20.38;11.00;;;;;;;-0.63;52.58;102175.81;5031448;28;20565;-72
2024/03/08 02:59:17;;;;;;;26.02;11.07;;;;;;;-0.72;52.85;102180.69;5018507;28;20037;-72
2024/03/08 03:01:43;;;;;;;25.07;11.53;;;;;;;-0.83;53.17;102179.53;5025704;28;20048;-72
2024/03/08 03:04:09;;;;;;;27.10;10.80;;;;;;;-0.77;52.83;102172.00;5022786;28;20033;-73
2024/03/08 03:06:35;;;;;;;22.95;10.50;;;;;;;-0.62;52.34;102167.28;5035005;28;20037;-73
2024/03/08 03:09:01;;;;;;;23.95;11.13;;;;;;;-0.67;52.78;102168.84;5018381;28;20183;-73
2024/03/08 03:11:27;;;;;;;25.80;12.18;;;;;;;-0.73;52.78;102167.81;5018480;28;20044;-73
2024/03/08 03:13:53;;;;;;;26.10;11.75;;;;;;;-0.74;52.45;102169.50;5010354;28;20097;-72
2024/03/08 03:16:22;;;;;;;26.55;11.63;;;;;;;-0.81;52.84;102159.91;5020004;28;20046;-74
2024/03/08 03:18:49;;;;;;;27.30;12.07;;;;;;;-0.89;53.25;102161.38;5023882;28;20122;-74
2024/03/08 03:21:17;;;;;;;27.98;11.60;;;;;;;-0.83;52.84;102159.84;5018023;28;20036;-74
2024/03/08 03:23:42;;;;;;;29.50;12.25;;;;;;;-0.92;53.53;102158.75;5026049;28;20529;-74
2024/03/08 03:26:12;;;;;;;27.63;13.55;;;;;;;-0.85;53.30;102160.66;5018771;28;20045;-72
2024/03/08 03:28:39;;;;;;;34.15;12.63;;;;;;;-0.84;53.46;102157.25;5024171;28;20390;-72
2024/03/08 03:31:09;;;;;;;30.33;11.70;;;;;;;-0.76;53.79;102160.91;5020730;28;20044;-71
2024/03/08 03:33:36;;;;;;;28.08;11.98;;;;;;;-0.82;54.04;102160.72;5024240;28;20032;-72
2024/03/08 03:36:05;;;;;;;27.27;13.15;;;;;;;-0.84;53.79;102162.38;5009097;28;20037;-72
2024/03/08 03:38:30;;;;;;;24.27;12.02;;;;;;;-0.86;54.02;102158.88;5023716;28;20047;-72
2024/03/08 03:40:57;;;;;;;26.17;11.48;;;;;;;-0.84;54.11;102159.81;5009689;28;20044;-69
2024/03/08 03:43:25;;;;;;;33.13;13.55;;;;;;;-1.03;54.58;102159.28;5033900;28;20094;-69
2024/03/08 03:45:51;;;;;;;30.20;12.23;;;;;;;-0.92;54.13;102162.16;5024738;28;21037;-69
2024/03/08 03:48:16;;;;;;;31.40;11.93;;;;;;;-0.93;54.37;102159.56;5019160;28;20036;-69
2024/03/08 03:50:42;;;;;;;25.90;11.65;;;;;;;-1.10;54.56;102154.78;5022169;28;20124;-69
2024/03/08 03:53:07;;;;;;;27.10;12.02;;;;;;;-1.14;55.15;102158.09;5023056;28;20033;-70
2024/03/08 03:55:33;;;;;;;25.65;12.93;;;;;;;-1.17;54.83;102156.31;5023045;28;20108;-70
2024/03/08 03:58:00;;;;;;;30.10;12.52;;;;;;;-1.18;55.17;102161.38;5021473;28;20076;-69
2024/03/08 04:00:27;;;;;;;29.88;12.35;;;;;;;-1.12;54.55;102161.56;4997426;28;20036;-70
2024/03/08 04:02:53;;;;;;;27.17;12.60;;;;;;;-1.16;54.93;102162.28;5015536;28;20114;-70
2024/03/08 04:05:21;;;;;;;26.17;12.60;;;;;;;-1.18;54.97;102156.25;5009048;28;20305;-71
2024/03/08 04:07:46;;;;;;;27.73;12.73;;;;;;;-1.27;55.29;102158.53;5006851;28;21433;-70
2024/03/08 04:10:12;;;;;;;27.98;13.48;;;;;;;-1.45;55.82;102159.72;5006190;28;20470;-70
2024/03/08 04:12:38;;;;;;;30.15;13.48;;;;;;;-1.47;55.71;102152.81;5008360;28;20045;-70
2024/03/08 04:15:07;;;;;;;24.63;11.88;;;;;;;-1.42;55.92;102152.16;5016008;28;20075;-70
2024/03/08 04:17:37;;;;;;;29.77;13.10;;;;;;;-1.35;55.36;102153.19;5020560;28;20094;-70
2024/03/08 04:20:08;;;;;;;30.65;14.35;;;;;;;-1.42;55.76;102151.25;5028222;28;20490;-70
2024/03/08 04:22:39;;;;;;;28.67;13.68;;;;;;;-1.40;55.51;102145.38;5028328;28;20043;-70
2024/03/08 04:25:05;;;;;;;26.40;11.35;;;;;;;-1.42;55.29;102143.56;5024911;28;20109;-70
2024/03/08 04:27:32;;;;;;;29.98;12.88;;;;;;;-1.56;55.71;102143.16;5016753;28;20052;-71
2024/03/08 04:29:59;;;;;;;27.17;11.95;;;;;;;-1.56;55.81;102138.00;5026057;28;20031;-71
2024/03/08 04:32:25;;;;;;;34.15;14.32;;;;;;;-1.50;55.38;102132.22;5014050;28;20171;-72
2024/03/08 04:34:50;;;;;;;30.98;13.90;;;;;;;-1.59;55.73;102136.22;5026890;28;20020;-72
2024/03/08 04:37:21;;;;;;;31.50;12.10;;;;;;;-1.64;55.63;102132.66;5017830;28;20573;-73
2024/03/08 04:39:46;;;;;;;27.77;13.02;;;;;;;-1.69;55.93;102131.63;5025824;28;20033;-72
2024/03/08 04:42:13;;;;;;;25.52;11.82;;;;;;;-1.69;56.44;102135.91;5019718;28;20044;-72
2024/03/08 04:44:39;;;;;;;35.58;13.48;;;;;;;-1.63;56.15;102130.97;5023895;28;20515;-72
2024/03/08 04:47:07;;;;;;;31.40;14.45;;;;;;;-1.67;56.32;102134.25;5027504;28;20041;-71
2024/03/08 04:49:36;;;;;;;30.02;14.25;;;;;;;-1.64;55.96;102134.38;5018978;28;20170;-72
2024/03/08 04:52:03;;;;;;;26.73;13.13;;;;;;;-1.62;55.77;102127.56;5025835;28;20513;-69
2024/03/08 04:54:29;;;;;;;33.85;13.20;;;;;;;-1.60;55.86;102123.34;5018822;28;20573;-70
2024/03/08 04:56:54;;;;;;;25.85;12.10;;;;;;;-1.68;56.00;102112.88;5030116;28;20041;-70
2024/03/08 04:59:20;;;;;;;29.77;13.57;;;;;;;-1.58;55.79;102111.47;4999583;28;20486;-70
2024/03/08 05:01:45;;;;;;;30.25;12.80;;;;;;;-1.70;56.28;102111.09;5019762;28;20037;-69
2024/03/08 05:04:11;;;;;;;25.33;11.90;;;;;;;-1.70;56.23;102109.41;5003661;28;20107;-70
2024/03/08 05:06:36;;;;;;;28.88;11.73;;;;;;;-1.66;55.94;102107.81;5007796;28;20043;-71
2024/03/08 05:09:13;;;;;;;34.20;13.70;;;;;;;-1.63;56.01;102115.59;5001709;28;20036;-70
2024/03/08 05:11:47;;;;;;;25.95;13.77;;;;;;;-1.74;56.16;102111.81;5010805;28;20040;-73
2024/03/08 05:14:17;;;;;;;26.17;11.23;;;;;;;-1.74;55.75;102115.25;5031212;28;20918;-73
2024/03/08 05:16:48;;;;;;;25.63;12.10;;;;;;;-1.69;55.81;102105.13;5030085;28;20063;-73
2024/03/08 05:19:17;;;;;;;31.15;14.45;;;;;;;-1.67;55.66;102113.75;5019050;28;20269;-73
2024/03/08 05:21:49;;;;;;;30.08;12.18;;;;;;;-1.73;55.58;102109.31;4998249;28;20049;-72
2024/03/08 05:24:15;;;;;;;;;;;;;;;-1.72;55.78;102105.06;5023677;28;20090;-72
2024/03/08 05:26:41;;;;;;;35.17;12.60;;;;;;;-1.76;55.71;102109.19;5027086;28;19916;-72
2024/03/08 05:29:08;;;;;;;34.40;14.38;;;;;;;-1.83;55.76;102104.72;5033086;28;20115;-72
2024/03/08 05:31:48;;;;;;;31.58;14.38;;;;;;;-1.77;55.54;102101.47;5021495;28;21651;-72
2024/03/08 05:34:15;;;;;;;36.40;13.73;;;;;;;-1.92;55.89;102107.84;5028829;28;20016;-68
2024/03/08 05:36:44;;;;;;;30.38;12.45;;;;;;;-1.75;55.50;102097.28;5024479;28;20048;-70
2024/03/08 05:39:11;;;;;;;28.17;12.75;;;;;;;-1.76;55.38;102098.09;5032407;28;20025;-76
2024/03/08 05:41:39;;;;;;;34.30;12.18;;;;;;;-1.79;55.54;102098.88;5021186;28;22819;-72
2024/03/08 05:44:04;;;;;;;31.67;13.63;;;;;;;-1.77;55.18;102098.94;5031698;28;20047;-73
2024/03/08 05:46:30;;;;;;;32.92;13.98;;;;;;;-1.89;55.83;102097.72;5018377;28;20041;-73
2024/03/08 05:48:55;;;;;;;32.35;13.88;;;;;;;-1.92;56.00;102097.59;5029558;28;20106;-73
2024/03/08 05:51:23;;;;;;;34.67;13.15;;;;;;;-1.75;55.25;102092.16;5020975;28;20045;-74
2024/03/08 05:53:49;;;;;;;34.38;14.18;;;;;;;-1.76;55.18;102092.97;5038743;28;20023;-74
2024/03/08 05:56:14;;;;;;;28.00;13.05;;;;;;;-1.85;55.64;102084.16;5028368;28;20036;-77
2024/03/08 05:58:40;;;;;;;28.75;13.27;;;;;;;-1.81;55.38;102092.81;5023797;28;20866;-75
2024/03/08 06:01:07;;;;;;;30.52;14.68;;;;;;;-1.88;55.18;102078.94;5013054;28;20056;-76
2024/03/08 06:03:34;;;;;;;29.40;13.13;;;;;;;-1.86;55.32;102085.00;5018339;28;20085;-76
2024/03/08 06:05:59;;;;;;;29.30;14.52;;;;;;;-1.84;55.46;102088.47;5038880;28;20044;-75
2024/03/08 06:08:29;;;;;;;28.48;13.45;;;;;;;-1.83;55.17;102079.94;5014598;28;20131;-75
2024/03/08 06:10:56;;;;;;;26.10;11.88;;;;;;;-1.76;55.09;102077.56;5011276;28;20041;-75
2024/03/08 06:13:21;;;;;;;28.90;12.82;;;;;;;-1.71;55.05;102076.91;5009966;28;20241;-75
2024/03/08 06:15:47;;;;;;;29.30;13.38;;;;;;;-1.68;55.26;102081.25;5001292;28;20653;-75
2024/03/08 06:18:12;;;;;;;35.80;12.95;;;;;;;-1.68;54.90;102071.88;5044040;28;20129;-76
2024/03/08 06:20:38;;;;;;;31.58;12.52;;;;;;;-1.70;55.25;102072.66;4997911;28;20028;-77
2024/03/08 06:23:03;;;;;;;30.17;12.88;;;;;;;-1.56;54.88;102071.34;5024475;28;20056;-76
2024/03/08 06:25:29;;;;;;;25.90;12.40;;;;;;;-1.64;54.90;102070.28;4991344;28;20566;-76
2024/03/08 06:27:55;;;;;;;30.42;12.68;;;;;;;-1.62;55.19;102071.16;5012297;28;20147;-75
2024/03/08 06:30:21;;;;;;;28.00;12.77;;;;;;;-1.69;55.10;102076.94;5031527;28;20064;-77
2024/03/08 06:32:46;;;;;;;33.95;13.27;;;;;;;-1.45;54.59;102074.22;5003362;28;20090;-75
2024/03/08 06:35:12;;;;;;;28.95;12.82;;;;;;;-1.34;54.51;102075.41;5019772;28;20032;-77
2024/03/08 06:37:38;;;;;;;26.65;11.95;;;;;;;-1.34;54.30;102069.41;5020352;28;20495;-70
2024/03/08 06:40:04;;;;;;;30.83;13.05;;;;;;;-1.33;53.97;102066.91;5011407;28;20157;-70
2024/03/08 06:42:35;;;;;;;30.00;14.13;;;;;;;-1.23;53.71;102062.91;5007837;28;21009;-70
2024/03/08 06:45:04;;;;;;;27.73;12.30;;;;;;;-1.25;53.69;102067.97;5029545;28;20056;-70
2024/03/08 06:47:33;;;;;;;31.60;12.27;;;;;;;-1.23;53.79;102070.59;4999359;28;20082;-70
2024/03/08 06:49:58;;;;;;;31.85;13.20;;;;;;;-1.03;53.00;102064.34;5020304;28;20044;-69
2024/03/08 06:52:24;;;;;;;30.92;12.73;;;;;;;-0.97;53.51;102064.50;5019778;28;20048;-70
2024/03/08 06:54:50;;;;;;;26.02;12.10;;;;;;;-0.61;52.77;102062.88;5025183;28;20134;-70
2024/03/08 06:57:16;;;;;;;28.95;12.55;;;;;;;0.22;50.96;102070.84;5002199;28;20045;-69
2024/03/08 06:59:42;;;;;;;30.13;12.88;;;;;;;1.06;48.83;102074.28;5012393;28;20486;-70
2024/03/08 07:02:09;;;;;;;33.97;13.02;;;;;;;1.96;46.90;102068.09;5021115;28;20033;-69
2024/03/08 07:04:37;;;;;;;28.13;12.23;;;;;;;2.49;43.60;102062.81;5015085;28;20032;-69
2024/03/08 07:07:09;;;;;;;35.17;13.50;;;;;;;3.14;43.58;102060.09;4992825;28;20595;-72
2024/03/08 07:09:35;;;;;;;;;;;;;;;3.50;41.66;102063.06;5016459;28;20111;-71
2024/03/08 07:12:01;;;;;;;22.17;11.48;;;;;;;3.45;42.23;102068.19;5026475;28;20019;-72
2024/03/08 07:14:27;;;;;;;25.58;11.77;;;;;;;3.31;41.71;102056.84;5013705;28;20223;-74
2024/03/08 07:16:52;;;;;;;22.40;10.98;;;;;;;3.52;41.39;102062.22;5007898;28;20075;-73
2024/03/08 07:19:19;;;;;;;26.90;12.40;;;;;;;3.93;40.41;102064.22;5019383;28;20123;-72
2024/03/08 07:21:44;;;;;;;25.48;12.10;;;;;;;4.18;39.51;102061.81;5015362;28;20036;-73
2024/03/08 07:26:48;;;;;;;25.88;11.52;;;;;;;4.57;39.56;102057.69;5017320;28;20029;-71
2024/03/08 07:29:15;;;;;;;28.10;11.73;;;;;;;5.09;38.96;102067.38;5007855;28;20036;-67
2024/03/08 07:34:24;;;;;;;28.75;12.13;;;;;;;5.82;36.17;102057.03;5013373;28;20044;-68
2024/03/08 07:36:50;;;;;;;20.98;10.95;;;;;;;5.86;36.67;102057.91;5007874;28;20947;-69
2024/03/08 07:39:17;;;;;;;21.90;10.60;;;;;;;6.19;35.92;102058.69;5032872;28;20067;-69
2024/03/08 07:41:42;;;;;;;21.52;11.18;;;;;;;6.32;34.93;102052.63;5017712;28;20503;-69
2024/03/08 07:44:08;;;;;;;23.45;11.18;;;;;;;5.80;36.04;102057.91;5013664;28;20040;-70
2024/03/08 07:46:34;;;;;;;19.05;11.07;;;;;;;5.48;37.38;102055.31;5012181;28;20095;-69
2024/03/08 07:49:00;;;;;;;24.98;11.88;;;;;;;5.52;37.23;102063.09;4993095;28;20071;-70
2024/03/08 07:51:26;;;;;;;24.13;12.70;;;;;;;6.18;36.63;102059.56;5008623;28;20527;-70
2024/03/08 07:53:52;;;;;;;26.25;11.85;;;;;;;6.57;36.76;102062.91;5004871;28;20216;-70
2024/03/08 07:56:18;;;;;;;24.27;12.80;;;;;;;6.88;34.70;102048.03;5029998;28;20128;-70
2024/03/08 07:58:44;;;;;;;26.13;11.90;;;;;;;6.97;35.02;102054.91;5022395;28;20448;-69
2024/03/08 08:01:19;;;;;;;22.17;12.43;;;;;;;7.18;34.37;102041.78;5023970;28;21142;-69
2024/03/08 08:03:45;;;;;;;20.45;12.57;;;;;;;6.74;34.09;102040.31;5006948;28;20037;-69
2024/03/08 08:06:15;;;;;;;22.73;11.45;;;;;;;6.84;34.16;102036.81;5002822;28;20055;-69
2024/03/08 08:08:44;;;;;;;22.70;11.80;;;;;;;6.75;35.00;102038.59;5004568;28;20517;-70
2024/03/08 08:11:15;;;;;;;25.23;12.07;;;;;;;6.73;33.85;102043.81;5005447;28;20041;-69
2024/03/08 08:13:43;;;;;;;27.38;11.48;;;;;;;6.25;34.26;102035.31;5012069;28;20433;-70
2024/03/08 08:16:10;;;;;;;27.08;11.65;;;;;;;5.95;35.00;102036.25;5005399;28;20056;-71
2024/03/08 08:18:36;;;;;;;24.90;12.57;;;;;;;5.88;35.07;102032.78;5018857;28;20084;-69
2024/03/08 08:21:02;;;;;;;22.95;11.95;;;;;;;6.53;34.65;102019.63;5023244;28;21386;-70
2024/03/08 08:23:29;;;;;;;26.42;12.77;;;;;;;6.39;34.64;102019.69;5031344;28;20029;-70
2024/03/08 08:25:55;;;;;;;28.70;12.70;;;;;;;6.36;34.30;102018.00;5014417;28;20070;-70
2024/03/08 08:28:20;;;;;;;25.38;12.32;;;;;;;6.18;33.81;102021.47;5029998;28;20102;-70
2024/03/08 08:30:46;;;;;;;23.20;11.75;;;;;;;5.73;34.62;102022.47;5020439;28;20131;-70
2024/03/08 08:33:12;;;;;;;25.85;12.93;;;;;;;5.88;34.84;102015.53;5029967;28;20032;-68
2024/03/08 08:35:38;;;;;;;24.40;11.23;;;;;;;5.45;35.29;102017.28;5027375;28;20074;-69
2024/03/08 08:38:09;;;;;;;23.17;11.65;;;;;;;5.54;35.26;102009.50;5025455;28;20832;-70
2024/03/08 08:40:36;;;;;;;24.50;12.68;;;;;;;4.67;36.13;102011.97;5031565;28;20574;-68
2024/03/08 08:43:04;;;;;;;23.90;11.70;;;;;;;4.77;36.32;102005.97;5025852;28;20050;-68
2024/03/08 08:45:30;;;;;;;22.60;12.30;;;;;;;5.12;36.47;102000.00;5030519;28;20028;-68
2024/03/08 08:47:56;;;;;;;20.50;10.85;;;;;;;5.17;36.09;102003.47;5019048;28;20047;-68
2024/03/08 08:50:23;;;;;;;24.00;11.95;;;;;;;4.77;36.52;101999.06;5030830;28;20032;-68
2024/03/08 08:52:49;;;;;;;22.75;11.57;;;;;;;4.93;36.57;101993.94;5020560;28;20053;-71
2024/03/08 08:55:14;;;;;;;21.55;11.93;;;;;;;4.28;37.32;101992.84;5036239;28;20029;-70
2024/03/08 08:57:41;;;;;;;20.52;9.57;;;;;;;3.84;37.83;101986.59;5022453;28;20118;-69
2024/03/08 09:00:10;;;;;;;22.75;12.20;;;;;;;3.64;38.46;101988.19;5025852;28;20029;-68
2024/03/08 09:02:37;;;;;;;21.27;11.70;;;;;;;3.97;38.04;101985.78;5012408;28;20078;-71
2024/03/08 09:05:03;;;;;;;24.38;11.68;;;;;;;3.55;39.15;101974.31;5019197;28;21049;-68
2024/03/08 09:07:29;;;;;;;26.08;12.02;;;;;;;4.13;37.91;101978.13;5028588;28;20037;-69
2024/03/08 09:09:57;;;;;;;26.52;11.65;;;;;;;3.86;38.45;101964.19;5020975;28;20047;-71
2024/03/08 09:12:23;;;;;;;22.27;10.60;;;;;;;4.24;38.16;101983.34;5029865;28;20033;-70
2024/03/08 09:14:50;;;;;;;21.17;11.27;;;;;;;4.14;38.44;101975.53;5012703;28;20072;-70
2024/03/08 09:17:20;;;;;;;20.88;11.40;;;;;;;3.74;38.25;101970.16;5026948;28;20870;-70
2024/03/08 09:19:47;;;;;;;22.65;11.32;;;;;;;3.65;38.90;101979.56;5012556;28;20047;-70
2024/03/08 09:22:13;;;;;;;19.35;9.95;;;;;;;4.10;38.23;101962.59;5001581;28;20048;-70
2024/03/08 09:24:39;;;;;;;26.30;12.52;;;;;;;4.11;37.53;101969.47;5014829;28;20032;-71
2024/03/08 09:27:05;;;;;;;20.40;11.15;;;;;;;3.55;39.21;101966.56;5014590;28;20044;-70
2024/03/08 09:29:30;;;;;;;17.10;10.40;;;;;;;3.50;39.16;101957.06;5008663;28;20074;-71
2024/03/08 09:31:56;;;;;;;20.88;11.35;;;;;;;4.21;38.16;101956.59;5015754;28;20099;-68
2024/03/08 09:34:22;;;;;;;27.75;11.95;;;;;;;4.40;38.02;101957.50;5024415;28;20033;-70
2024/03/08 09:36:48;;;;;;;19.00;10.48;;;;;;;3.97;38.49;101948.72;5013186;28;20106;-70
2024/03/08 09:39:20;;;;;;;29.27;12.38;;;;;;;4.02;38.74;101954.78;5011505;28;20257;-69
2024/03/08 09:41:49;;;;;;;16.90;10.10;;;;;;;4.27;38.21;101945.38;5016889;28;20044;-70
2024/03/08 09:44:15;;;;;;;22.55;10.30;;;;;;;3.97;38.80;101941.81;5026393;28;20060;-68
2024/03/08 09:46:42;;;;;;;22.60;12.07;;;;;;;4.47;38.52;101927.31;5023978;28;20131;-70
2024/03/08 09:49:08;;;;;;;24.27;10.45;;;;;;;4.16;38.08;101922.09;5025344;28;20040;-69
2024/03/08 09:51:35;;;;;;;27.70;11.23;;;;;;;4.81;37.81;101907.53;5024536;28;20044;-70
2024/03/08 09:54:04;;;;;;;22.45;10.38;;;;;;;4.49;36.81;101914.38;5017512;28;20345;-70
2024/03/08 09:56:32;;;;;;;23.05;11.65;;;;;;;3.81;38.74;101911.59;5022832;28;20141;-70
2024/03/08 10:01:42;;;;;;;22.15;10.93;;;;;;;3.72;39.18;101904.63;5020532;28;20094;-72
2024/03/08 10:04:10;;;;;;;22.90;11.00;;;;;;;4.29;38.85;101907.44;5029007;28;20040;-70
2024/03/08 10:06:36;;;;;;;22.65;11.48;;;;;;;4.81;37.16;101897.19;5022248;28;20046;-70
2024/03/08 10:09:02;;;;;;;24.30;11.25;;;;;;;4.83;37.83;101894.56;5017661;28;22781;-69
2024/03/08 10:11:28;;;;;;;21.10;11.35;;;;;;;4.87;37.03;101904.06;5023641;28;20415;-69
2024/03/08 10:13:54;;;;;;;24.70;11.23;;;;;;;5.48;36.36;101889.34;5003213;28;20032;-69
2024/03/08 10:16:20;;;;;;;25.23;11.55;;;;;;;5.80;35.55;101889.28;5016579;28;20222;-68
2024/03/08 10:18:46;;;;;;;23.55;11.38;;;;;;;5.62;35.42;101883.28;5009182;28;20097;-69
2024/03/08 10:21:13;;;;;;;20.90;11.10;;;;;;;5.28;35.83;101891.97;5010415;28;20037;-68
2024/03/08 10:23:39;;;;;;;22.98;12.10;;;;;;;5.73;36.17;101874.59;5013828;28;20058;-71
2024/03/08 10:26:18;;;;;;;21.30;11.48;;;;;;;5.41;35.61;101878.13;4999086;28;20469;-68
2024/03/08 10:28:48;;;;;;;19.60;10.20;;;;;;;5.36;35.83;101882.47;5017744;28;20044;-70
2024/03/08 10:31:15;;;;;;;23.58;11.82;;;;;;;5.09;36.56;101883.38;5012859;28;20056;-70
2024/03/08 10:33:41;;;;;;;23.88;12.02;;;;;;;5.06;36.97;101873.88;5013039;28;20041;-69
2024/03/08 10:36:11;;;;;;;22.00;11.57;;;;;;;5.83;35.65;101869.34;5017115;28;20040;-70
2024/03/08 10:38:41;;;;;;;21.50;10.60;;;;;;;5.99;35.37;101853.72;5011358;28;20718;-69
2024/03/08 10:41:09;;;;;;;20.27;11.85;;;;;;;5.32;35.79;101865.19;5010267;28;20139;-69
2024/03/08 10:43:55;;;;;;;27.85;12.35;;;;;;;4.75;36.49;101860.91;5046326;28;20029;-69
2024/03/08 10:46:47;;;;;;;23.15;11.40;;;;;;;5.04;36.68;101858.34;5023108;28;20122;-69
2024/03/08 10:49:17;;;;;;;21.85;12.32;;;;;;;5.33;36.06;101852.25;5027191;28;20032;-69
2024/03/08 10:51:44;;;;;;;21.23;11.20;;;;;;;5.59;36.20;101846.97;5029298;28;20044;-69
2024/03/08 10:54:11;;;;;;;24.58;12.32;;;;;;;5.35;35.57;101836.69;5014278;28;20645;-69
2024/03/08 10:56:37;;;;;;;18.45;11.38;;;;;;;5.38;35.70;101847.91;5030691;28;20068;-69
2024/03/08 10:59:04;;;;;;;21.40;12.30;;;;;;;4.95;36.86;101847.13;5015703;28;20074;-70
2024/03/08 11:01:30;;;;;;;22.45;11.73;;;;;;;4.93;36.63;101846.25;5028938;28;20458;-69
2024/03/08 11:03:56;;;;;;;21.15;11.05;;;;;;;5.19;36.53;101841.91;5018095;28;20048;-70
2024/03/08 11:06:37;;;;;;;22.23;11.82;;;;;;;4.80;37.11;101828.09;5025035;28;20055;-69
2024/03/08 11:09:13;;;;;;;28.38;13.07;;;;;;;4.79;37.29;101834.16;5014337;28;20036;-70
2024/03/08 11:11:42;;;;;;;19.45;11.93;;;;;;;5.69;36.44;101821.00;5027972;28;20044;-69
2024/03/08 11:14:56;;;;;;;24.63;12.13;;;;;;;5.82;36.11;101823.53;5014374;28;20461;-69
2024/03/08 11:17:40;;;;;;;21.73;11.02;;;;;;;5.57;36.16;101815.00;5015710;28;20076;-69
2024/03/08 11:20:17;;;;;;;24.42;12.50;;;;;;;6.15;34.76;101818.16;5017087;28;20584;-69
2024/03/08 11:23:01;;;;;;;22.58;12.15;;;;;;;5.57;35.59;101807.22;5025117;28;20044;-70